Terminal Aerodrome Forecast
Issued by NWS Huntsville, AL

Home | Current Version | Previous Version | Text Only | Print | Product List | Glossary On
Versions: 1 2 3 4 5 6 7 8 9 10 11 12 13 14 15 16 17 18 19 20 21 22 23 24 25 26 27 28 29 30 31 32 33 34
000
FTUS44 KHUN 202330
TAFHSV
TAF
KHSV 202330Z 2100/2124 12008KT P6SM BKN250
     FM210900 15008KT P6SM BKN035 BKN100
     FM211400 13012KT P6SM VCSH BKN030 OVC050
     FM211800 14012KT 5SM -RA BR OVC020
     FM212100 14009KT 2SM -RA BR OVC009=

USA.gov is the U.S. government's official web portal to all federal, state and local government web resources and services.